createdAt,value
2023-04-17T00:01:56.789Z,6.46
2023-04-17T00:04:26.108Z,6.60
2023-04-17T00:06:54.477Z,6.27
2023-04-17T00:09:24.213Z,6.47
2023-04-17T00:11:52.545Z,6.48
2023-04-17T00:14:20.885Z,6.66
2023-04-17T00:16:49.658Z,6.18
2023-04-17T00:19:17.962Z,6.53
2023-04-17T00:21:46.342Z,6.50
2023-04-17T00:24:14.822Z,6.47
2023-04-17T00:26:44.555Z,6.55
2023-04-17T00:29:13.073Z,6.60
2023-04-17T00:31:41.571Z,6.37
2023-04-17T00:34:09.910Z,6.28
2023-04-17T00:36:38.189Z,6.21
2023-04-17T00:39:06.637Z,6.29
2023-04-17T00:41:34.993Z,6.27
2023-04-17T00:44:04.875Z,6.17
2023-04-17T00:46:34.093Z,6.00
2023-04-17T00:49:02.834Z,6.03
2023-04-17T00:51:31.678Z,5.99
2023-04-17T00:54:01.760Z,6.12
2023-04-17T00:56:31.020Z,6.06
2023-04-17T00:59:02.554Z,6.13
2023-04-17T01:01:32.472Z,6.05
2023-04-17T01:04:02.015Z,6.06
2023-04-17T01:06:30.528Z,6.09
2023-04-17T01:08:59.835Z,5.90
2023-04-17T01:11:28.480Z,6.05
2023-04-17T01:13:56.864Z,6.14
2023-04-17T01:16:25.231Z,6.16
2023-04-17T01:18:55.085Z,6.20
2023-04-17T01:21:23.454Z,5.75
2023-04-17T01:23:53.373Z,6.23
2023-04-17T01:26:24.813Z,6.35
2023-04-17T01:28:54.849Z,6.22
2023-04-17T01:31:24.206Z,6.27
2023-04-17T01:33:53.051Z,6.09
2023-04-17T01:36:21.672Z,6.08
2023-04-17T01:38:50.128Z,6.11
2023-04-17T01:41:18.395Z,6.14
2023-04-17T01:43:48.931Z,6.18
2023-04-17T01:46:17.424Z,5.89
2023-04-17T01:48:45.796Z,6.15
2023-04-17T01:51:14.151Z,6.12
2023-04-17T01:53:42.530Z,6.20
2023-04-17T01:56:11.761Z,6.25
2023-04-17T01:58:40.153Z,6.21
2023-04-17T02:01:10.376Z,6.21
2023-04-17T02:03:38.760Z,6.21
2023-04-17T02:06:07.816Z,6.13
2023-04-17T02:08:36.144Z,6.14
2023-04-17T02:11:04.868Z,6.25
2023-04-17T02:13:33.274Z,6.27
2023-04-17T02:16:01.642Z,6.27
2023-04-17T02:18:31.461Z,6.27
2023-04-17T02:20:59.831Z,6.24
2023-04-17T02:23:28.137Z,6.21
2023-04-17T02:25:56.528Z,6.25
2023-04-17T02:28:24.961Z,6.19
2023-04-17T02:30:53.653Z,6.17
2023-04-17T02:33:21.969Z,6.18
2023-04-17T02:35:51.958Z,6.19
2023-04-17T02:38:20.602Z,6.19
2023-04-17T02:40:48.920Z,6.20
2023-04-17T02:43:17.429Z,6.19
2023-04-17T02:45:45.716Z,6.20
2023-04-17T02:48:14.168Z,5.62
2023-04-17T02:50:42.760Z,6.21
2023-04-17T02:53:12.622Z,6.25
2023-04-17T02:55:41.370Z,6.24
2023-04-17T02:58:09.715Z,6.28
2023-04-17T03:00:38.029Z,6.26
2023-04-17T03:03:06.743Z,6.27
2023-04-17T03:05:36.050Z,6.36
2023-04-17T03:08:04.804Z,6.28
2023-04-17T03:10:34.934Z,6.23
2023-04-17T03:13:03.837Z,6.23
2023-04-17T03:15:32.117Z,6.23
2023-04-17T03:18:00.471Z,6.07
2023-04-17T03:20:28.830Z,6.02
2023-04-17T03:22:57.113Z,6.15
2023-04-17T03:25:25.498Z,6.13
2023-04-17T03:27:56.866Z,6.13
2023-04-17T03:30:26.207Z,6.15
2023-04-17T03:32:54.603Z,6.10
2023-04-17T03:35:23.209Z,6.07
2023-04-17T03:37:51.657Z,5.99
2023-04-17T03:40:20.008Z,5.83
2023-04-17T03:42:48.401Z,6.09
2023-04-17T03:45:18.289Z,6.13
2023-04-17T03:47:47.910Z,4.72
2023-04-17T03:50:16.498Z,6.11
2023-04-17T03:52:44.905Z,6.08
2023-04-17T03:55:13.330Z,6.05
2023-04-17T03:57:42.037Z,6.02
2023-04-17T04:00:12.448Z,6.04
2023-04-17T04:02:42.571Z,5.96
2023-04-17T04:05:11.823Z,5.95
2023-04-17T04:07:40.210Z,5.46
2023-04-17T04:10:09.872Z,5.97
2023-04-17T04:12:38.175Z,5.97
2023-04-17T04:15:07.950Z,6.01
2023-04-17T04:17:36.307Z,6.01
2023-04-17T04:20:08.626Z,6.00
2023-04-17T04:22:37.045Z,5.90
2023-04-17T04:25:06.631Z,5.52
2023-04-17T04:27:35.321Z,5.02
2023-04-17T04:30:05.020Z,5.67
2023-04-17T04:32:34.081Z,5.61
2023-04-17T04:35:02.538Z,5.24
2023-04-17T04:37:32.524Z,5.65
2023-04-17T04:40:10.577Z,5.66
2023-04-17T04:42:39.825Z,5.61
2023-04-17T04:45:09.357Z,5.57
2023-04-17T04:47:37.820Z,5.64
2023-04-17T04:50:07.383Z,5.83
2023-04-17T04:52:37.136Z,5.53
2023-04-17T04:55:06.083Z,5.49
2023-04-17T04:57:34.531Z,5.43
2023-04-17T05:00:03.478Z,5.44
2023-04-17T05:02:31.891Z,5.44
2023-04-17T05:05:00.475Z,5.33
2023-04-17T05:07:28.885Z,4.89
2023-04-17T05:09:58.626Z,5.15
2023-04-17T05:12:26.968Z,5.25
2023-04-17T05:14:55.425Z,5.38
2023-04-17T05:17:23.885Z,5.33
2023-04-17T05:19:52.283Z,5.27
2023-04-17T05:22:21.826Z,5.00
2023-04-17T05:24:50.207Z,5.01
2023-04-17T05:27:20.882Z,5.21
2023-04-17T05:29:49.209Z,4.70
2023-04-17T05:32:17.565Z,5.37
2023-04-17T05:34:47.466Z,5.34
2023-04-17T05:37:15.854Z,5.42
2023-04-17T05:39:44.272Z,5.25
2023-04-17T05:42:12.544Z,5.26
2023-04-17T05:44:42.259Z,5.28
2023-04-17T05:47:10.654Z,5.35
2023-04-17T05:49:39.293Z,5.28
2023-04-17T05:52:07.993Z,5.46
2023-04-17T05:54:36.678Z,5.46
2023-04-17T05:57:05.118Z,5.39
2023-04-17T05:59:33.444Z,5.51
2023-04-17T06:02:03.323Z,5.48
2023-04-17T06:04:32.284Z,5.46
2023-04-17T06:07:02.676Z,5.33
2023-04-17T06:09:31.475Z,5.48
2023-04-17T06:11:59.814Z,5.51
2023-04-17T06:14:28.094Z,5.52
2023-04-17T06:16:56.516Z,5.55
2023-04-17T06:19:26.586Z,5.52
2023-04-17T06:21:55.549Z,5.56
2023-04-17T06:24:23.876Z,5.55
2023-04-17T06:26:52.268Z,5.52
2023-04-17T06:29:20.554Z,5.49
2023-04-17T06:31:48.945Z,4.57
2023-04-17T06:34:17.249Z,5.43
2023-04-17T06:36:47.062Z,5.43
2023-04-17T06:39:15.403Z,5.45
2023-04-17T06:41:43.750Z,5.48
2023-04-17T06:44:12.242Z,5.38
2023-04-17T06:46:40.665Z,5.22
2023-04-17T06:49:09.140Z,5.15
2023-04-17T06:51:37.525Z,5.45
2023-04-17T06:54:09.992Z,5.31
2023-04-17T06:56:38.314Z,5.47
2023-04-17T06:59:06.887Z,5.50
2023-04-17T07:01:35.331Z,5.56
2023-04-17T07:04:03.703Z,5.46
2023-04-17T07:06:33.993Z,4.99
2023-04-17T07:09:02.861Z,5.24
2023-04-17T07:11:32.920Z,5.34
2023-04-17T07:14:01.432Z,5.22
2023-04-17T07:16:29.885Z,5.21
2023-04-17T07:18:58.221Z,5.29
2023-04-17T07:21:27.082Z,5.34
2023-04-17T07:23:55.499Z,5.41
2023-04-17T07:26:24.069Z,5.17
2023-04-17T07:28:53.827Z,5.36
2023-04-17T07:31:22.473Z,5.35
2023-04-17T07:33:50.946Z,5.28
2023-04-17T07:36:19.620Z,5.18
2023-04-17T07:38:47.897Z,5.15
2023-04-17T07:41:16.464Z,5.36
2023-04-17T07:43:44.854Z,5.20
2023-04-17T07:46:15.057Z,5.21
2023-04-17T07:48:43.381Z,5.33
2023-04-17T07:51:11.896Z,5.35
2023-04-17T07:53:40.206Z,5.46
2023-04-17T07:56:08.687Z,5.22
2023-04-17T07:58:37.087Z,5.16
2023-04-17T08:01:06.286Z,5.20
2023-04-17T08:03:36.365Z,5.30
2023-04-17T08:06:04.947Z,5.37
2023-04-17T08:08:33.311Z,5.38
2023-04-17T08:11:01.714Z,5.28
2023-04-17T08:13:32.309Z,5.43
2023-04-17T08:16:01.689Z,5.40
2023-04-17T08:18:30.185Z,5.43
2023-04-17T08:21:00.042Z,5.37
2023-04-17T08:23:28.502Z,5.33
2023-04-17T08:25:56.867Z,5.28
2023-04-17T08:28:25.760Z,5.29
2023-04-17T08:30:54.206Z,5.34
2023-04-17T08:33:22.575Z,5.33
2023-04-17T08:35:50.912Z,5.65
2023-04-17T08:38:21.125Z,5.43
2023-04-17T08:40:53.958Z,5.35
2023-04-17T08:43:22.794Z,5.41
2023-04-17T08:45:54.324Z,5.38
2023-04-17T08:48:23.289Z,5.27
2023-04-17T08:50:54.091Z,5.28
2023-04-17T08:53:23.917Z,5.11
2023-04-17T08:55:52.434Z,5.45
2023-04-17T08:58:22.094Z,5.28
2023-04-17T09:00:50.547Z,5.20
2023-04-17T09:03:19.042Z,5.42
2023-04-17T09:05:48.669Z,5.10
2023-04-17T09:08:20.911Z,5.43
2023-04-17T09:10:52.529Z,5.37
2023-04-17T09:13:25.054Z,5.31
2023-04-17T09:16:06.488Z,5.36
2023-04-17T09:18:36.219Z,5.30
2023-04-17T09:21:06.290Z,5.24
2023-04-17T09:23:49.961Z,5.35
2023-04-17T09:26:21.264Z,5.08
2023-04-17T09:29:09.328Z,5.31
2023-04-17T09:31:39.558Z,5.42
2023-04-17T09:34:09.278Z,5.29
2023-04-17T09:36:39.150Z,5.33
2023-04-17T09:39:18.125Z,5.23
2023-04-17T09:41:48.868Z,5.03
2023-04-17T09:44:28.241Z,5.19
2023-04-17T09:46:57.672Z,5.11
2023-04-17T09:49:35.402Z,5.31
2023-04-17T09:52:04.450Z,4.92
2023-04-17T09:54:33.292Z,5.63
2023-04-17T09:57:04.589Z,5.48
2023-04-17T09:59:33.610Z,5.20
2023-04-17T10:02:02.828Z,5.62
2023-04-17T10:04:32.032Z,5.17
2023-04-17T10:07:00.792Z,5.55
2023-04-17T10:09:29.074Z,5.51
2023-04-17T10:11:58.298Z,5.36
2023-04-17T10:14:29.693Z,5.26
2023-04-17T10:16:58.198Z,5.83
2023-04-17T10:19:29.694Z,5.86
2023-04-17T10:22:41.512Z,5.91
2023-04-17T10:25:23.899Z,5.93
2023-04-17T10:27:59.969Z,5.85
2023-04-17T10:30:55.192Z,6.04
2023-04-17T10:33:25.962Z,5.81
2023-04-17T10:35:55.273Z,5.80
2023-04-17T10:38:34.820Z,5.74
2023-04-17T10:41:05.311Z,5.60
2023-04-17T10:43:33.655Z,5.61
2023-04-17T10:46:10.287Z,5.61
2023-04-17T10:48:41.956Z,5.54
2023-04-17T10:51:43.971Z,5.79
2023-04-17T10:54:15.800Z,5.84
2023-04-17T10:56:46.441Z,6.11
2023-04-17T10:59:16.011Z,6.23
2023-04-17T11:02:04.509Z,6.01
2023-04-17T11:04:34.112Z,6.02
2023-04-17T11:07:02.723Z,6.27
2023-04-17T11:09:31.410Z,6.01
2023-04-17T11:12:03.379Z,6.30
2023-04-17T11:14:32.780Z,6.40
2023-04-17T11:17:02.873Z,6.57
2023-04-17T11:19:33.783Z,6.74
2023-04-17T11:22:03.005Z,6.88
2023-04-17T11:24:32.650Z,6.78
2023-04-17T11:27:04.028Z,6.64
2023-04-17T11:29:32.417Z,6.61
2023-04-17T11:32:02.237Z,6.59
2023-04-17T11:34:31.905Z,6.73
2023-04-17T11:37:02.478Z,6.69
2023-04-17T11:39:34.774Z,6.90
2023-04-17T11:42:03.956Z,7.03
2023-04-17T11:44:32.281Z,7.18
2023-04-17T11:47:04.161Z,7.35
2023-04-17T11:49:34.637Z,7.44
2023-04-17T11:52:04.445Z,7.52
2023-04-17T11:54:37.526Z,7.52
2023-04-17T11:57:08.320Z,7.25
2023-04-17T11:59:38.120Z,7.62
2023-04-17T12:02:09.621Z,7.64
2023-04-17T12:04:40.124Z,7.63
2023-04-17T12:07:09.817Z,7.83
2023-04-17T12:09:38.212Z,7.93
2023-04-17T12:12:08.972Z,8.15
2023-04-17T12:14:37.292Z,8.21
2023-04-17T12:17:05.715Z,8.15
2023-04-17T12:19:35.491Z,8.24
2023-04-17T12:22:03.882Z,8.15
2023-04-17T12:24:32.206Z,8.40
2023-04-17T12:27:02.085Z,8.39
2023-04-17T12:29:42.993Z,8.14
2023-04-17T12:32:13.323Z,8.24
2023-04-17T12:34:43.153Z,8.48
2023-04-17T12:37:11.753Z,8.54
2023-04-17T12:39:40.145Z,8.38
2023-04-17T12:42:08.400Z,8.42
2023-04-17T12:44:37.026Z,8.11
2023-04-17T12:47:05.453Z,8.22
2023-04-17T12:49:33.872Z,8.35
2023-04-17T12:52:04.115Z,8.42
2023-04-17T12:54:33.217Z,8.33
2023-04-17T12:57:01.723Z,8.36
2023-04-17T12:59:30.016Z,8.41
2023-04-17T13:01:58.431Z,8.47
2023-04-17T13:04:27.066Z,8.55
2023-04-17T13:06:55.881Z,8.75
2023-04-17T13:09:25.976Z,8.85
2023-04-17T13:11:54.276Z,8.37
2023-04-17T13:14:22.672Z,8.82
2023-04-17T13:16:51.794Z,8.69
2023-04-17T13:19:20.308Z,8.88
2023-04-17T13:21:48.672Z,9.07
2023-04-17T13:24:16.964Z,9.07
2023-04-17T13:26:46.652Z,9.26
2023-04-17T13:29:17.060Z,9.27
2023-04-17T13:31:46.831Z,9.12
2023-04-17T13:34:15.169Z,9.26
2023-04-17T13:36:45.063Z,9.05
2023-04-17T13:39:14.049Z,9.16
2023-04-17T13:41:42.563Z,9.43
2023-04-17T13:44:12.738Z,9.61
2023-04-17T13:46:41.762Z,9.28
2023-04-17T13:49:10.267Z,9.08
2023-04-17T13:51:38.757Z,8.85
2023-04-17T13:54:07.223Z,8.85
2023-04-17T13:56:35.595Z,8.89
2023-04-17T13:59:05.793Z,8.94
2023-04-17T14:01:35.740Z,8.98
2023-04-17T14:04:04.796Z,8.88
2023-04-17T14:06:34.405Z,8.78
2023-04-17T14:09:02.827Z,8.87
2023-04-17T14:11:31.177Z,8.72
2023-04-17T14:13:59.778Z,8.66
2023-04-17T14:16:28.371Z,8.69
2023-04-17T14:19:06.435Z,8.72
2023-04-17T14:21:41.562Z,8.94
2023-04-17T14:24:09.974Z,8.73
2023-04-17T14:26:39.261Z,8.62
2023-04-17T14:29:07.586Z,8.73
2023-04-17T14:31:36.026Z,8.31
2023-04-17T14:34:05.883Z,8.56
2023-04-17T14:36:35.843Z,8.51
2023-04-17T14:39:04.613Z,8.52
2023-04-17T14:41:34.391Z,8.04
2023-04-17T14:44:02.832Z,8.25
2023-04-17T14:46:31.176Z,8.22
2023-04-17T14:48:59.480Z,8.22
2023-04-17T14:51:30.687Z,8.05
2023-04-17T14:53:59.158Z,6.96
2023-04-17T14:56:27.524Z,6.74
2023-04-17T14:58:55.901Z,8.06
2023-04-17T15:01:24.327Z,8.15
2023-04-17T15:03:53.035Z,8.10
2023-04-17T15:06:21.788Z,8.13
2023-04-17T15:08:52.007Z,8.29
2023-04-17T15:11:21.140Z,8.42
2023-04-17T15:13:49.492Z,8.65
2023-04-17T15:16:18.078Z,8.72
2023-04-17T15:18:46.484Z,8.93
2023-04-17T15:21:16.829Z,8.28
2023-04-17T15:23:45.131Z,8.99
2023-04-17T15:26:15.399Z,8.66
2023-04-17T15:28:43.783Z,8.67
2023-04-17T15:31:12.478Z,8.63
2023-04-17T15:33:40.880Z,8.49
2023-04-17T15:36:09.296Z,8.24
2023-04-17T15:38:37.855Z,8.25
2023-04-17T15:41:06.585Z,8.34
2023-04-17T15:43:37.114Z,8.10
2023-04-17T15:46:05.591Z,8.09
2023-04-17T15:48:33.901Z,7.96
2023-04-17T15:51:04.637Z,7.76
2023-04-17T15:53:33.393Z,7.55
2023-04-17T15:56:01.791Z,7.93
2023-04-17T15:58:30.273Z,7.89
2023-04-17T16:01:00.024Z,7.86
2023-04-17T16:03:28.715Z,7.98
2023-04-17T16:05:57.314Z,7.90
2023-04-17T16:08:25.793Z,7.82
2023-04-17T16:10:54.174Z,7.73
2023-04-17T16:13:22.517Z,7.74
2023-04-17T16:15:51.964Z,7.72
2023-04-17T16:18:21.797Z,7.69
2023-04-17T16:20:50.136Z,7.67
2023-04-17T16:23:18.428Z,7.68
2023-04-17T16:25:46.742Z,7.69
2023-04-17T16:28:17.286Z,7.68
2023-04-17T16:30:52.677Z,7.52
2023-04-17T16:33:25.125Z,7.82
2023-04-17T16:35:53.458Z,7.87
2023-04-17T16:38:21.792Z,7.84
2023-04-17T16:40:50.168Z,7.68
2023-04-17T16:43:18.855Z,7.86
2023-04-17T16:45:47.159Z,7.77
2023-04-17T16:48:16.541Z,7.90
2023-04-17T16:50:46.358Z,7.84
2023-04-17T16:53:14.790Z,7.84
2023-04-17T16:55:43.154Z,7.95
2023-04-17T16:58:11.649Z,7.82
2023-04-17T17:00:40.073Z,7.80
2023-04-17T17:03:08.660Z,7.77
2023-04-17T17:05:37.325Z,7.73
2023-04-17T17:08:07.163Z,7.79
2023-04-17T17:10:35.549Z,7.77
2023-04-17T17:13:03.941Z,7.72
2023-04-17T17:15:32.224Z,7.77
2023-04-17T17:18:00.602Z,7.67
2023-04-17T17:20:28.917Z,7.64
2023-04-17T17:22:57.269Z,7.55
2023-04-17T17:25:27.138Z,7.53
2023-04-17T17:27:55.620Z,7.16
2023-04-17T17:30:24.109Z,5.38
2023-04-17T17:32:52.500Z,7.43
2023-04-17T17:35:21.154Z,7.31
2023-04-17T17:37:49.508Z,7.47
2023-04-17T17:40:17.970Z,7.35
2023-04-17T17:42:47.937Z,7.24
2023-04-17T17:45:16.244Z,7.30
2023-04-17T17:47:44.662Z,7.24
2023-04-17T17:50:13.054Z,7.23
2023-04-17T17:52:41.318Z,7.18
2023-04-17T17:55:14.292Z,7.17
2023-04-17T17:57:48.885Z,7.17
2023-04-17T18:00:20.468Z,7.16
2023-04-17T18:02:48.893Z,7.13
2023-04-17T18:05:17.716Z,7.11
2023-04-17T18:07:46.066Z,7.06
2023-04-17T18:10:14.685Z,6.88
2023-04-17T18:12:43.365Z,6.98
2023-04-17T18:15:12.440Z,6.94
2023-04-17T18:17:42.309Z,6.88
2023-04-17T18:20:11.540Z,6.83
2023-04-17T18:22:39.859Z,6.77
2023-04-17T18:25:09.046Z,6.74
2023-04-17T18:27:37.493Z,6.68
2023-04-17T18:30:06.911Z,6.62
2023-04-17T18:32:35.671Z,6.60
2023-04-17T18:35:06.360Z,6.55
2023-04-17T18:37:34.652Z,6.50
2023-04-17T18:40:03.193Z,6.46
2023-04-17T18:42:31.545Z,6.41
2023-04-17T18:44:59.937Z,6.36
2023-04-17T18:47:28.323Z,6.32
2023-04-17T18:49:56.683Z,6.27
2023-04-17T18:52:26.537Z,6.23
2023-04-17T18:54:54.878Z,6.19
2023-04-17T18:57:23.188Z,6.16
2023-04-17T18:59:51.496Z,6.09
2023-04-17T19:02:19.849Z,5.92
2023-04-17T19:04:48.221Z,6.05
2023-04-17T19:07:16.499Z,6.05
2023-04-17T19:09:46.294Z,6.05
2023-04-17T19:12:14.751Z,6.05
2023-04-17T19:14:43.065Z,6.08
2023-04-17T19:17:11.463Z,6.05
2023-04-17T19:19:39.755Z,6.01
2023-04-17T19:22:08.090Z,5.97
2023-04-17T19:24:36.419Z,5.92
2023-04-17T19:27:06.188Z,5.88
2023-04-17T19:29:34.615Z,5.78
2023-04-17T19:32:03.414Z,5.82
2023-04-17T19:34:31.804Z,5.84
2023-04-17T19:37:00.758Z,5.85
2023-04-17T19:39:29.710Z,5.86
2023-04-17T19:41:58.201Z,5.11
2023-04-17T19:44:28.703Z,5.85
2023-04-17T19:46:57.864Z,5.85
2023-04-17T19:49:26.234Z,5.86
2023-04-17T19:51:54.578Z,5.87
2023-04-17T19:54:22.852Z,5.88
2023-04-17T19:56:51.242Z,5.61
2023-04-17T19:59:19.596Z,5.86
2023-04-17T20:01:50.022Z,5.84
2023-04-17T20:04:18.695Z,5.55
2023-04-17T20:06:47.282Z,5.82
2023-04-17T20:09:16.835Z,5.80
2023-04-17T20:11:45.560Z,5.65
2023-04-17T20:14:15.827Z,5.72
2023-04-17T20:16:46.457Z,5.58
2023-04-17T20:19:16.843Z,5.66
2023-04-17T20:21:47.086Z,5.43
2023-04-17T20:24:16.261Z,5.62
2023-04-17T20:26:45.775Z,5.62
2023-04-17T20:29:14.367Z,5.35
2023-04-17T20:31:43.050Z,5.61
2023-04-17T20:34:11.450Z,5.32
2023-04-17T20:36:41.421Z,5.41
2023-04-17T20:39:11.258Z,5.50
2023-04-17T20:41:39.916Z,5.68
2023-04-17T20:44:08.495Z,5.56
2023-04-17T20:46:36.827Z,5.68
2023-04-17T20:49:05.181Z,5.67
2023-04-17T20:51:33.456Z,5.15
2023-04-17T20:54:03.211Z,5.67
2023-04-17T20:56:31.874Z,5.65
2023-04-17T20:59:00.145Z,5.65
2023-04-17T21:01:28.961Z,5.60
2023-04-17T21:03:57.601Z,5.66
2023-04-17T21:06:26.993Z,5.52
2023-04-17T21:08:55.650Z,5.70
2023-04-17T21:11:25.393Z,5.73
2023-04-17T21:13:53.744Z,5.74
2023-04-17T21:16:22.126Z,5.76
2023-04-17T21:18:50.514Z,5.76
2023-04-17T21:21:18.910Z,5.77
2023-04-17T21:23:47.294Z,5.71
2023-04-17T21:26:15.630Z,5.81
2023-04-17T21:28:45.359Z,5.82
2023-04-17T21:31:15.502Z,5.82
2023-04-17T21:33:43.861Z,5.87
2023-04-17T21:36:12.290Z,5.81
2023-04-17T21:38:40.818Z,4.12
2023-04-17T21:41:09.564Z,5.78
2023-04-17T21:43:37.894Z,5.74
2023-04-17T21:46:11.047Z,5.73
2023-04-17T21:48:40.328Z,5.70
2023-04-17T21:51:08.634Z,5.66
2023-04-17T21:53:38.235Z,5.78
2023-04-17T21:56:07.230Z,5.81
2023-04-17T21:58:35.640Z,5.62
2023-04-17T22:01:04.856Z,5.86
2023-04-17T22:03:35.103Z,5.60
2023-04-17T22:06:03.794Z,5.81
2023-04-17T22:08:32.209Z,5.49
2023-04-17T22:11:00.623Z,5.81
2023-04-17T22:13:28.990Z,5.80
2023-04-17T22:15:58.502Z,5.81
2023-04-17T22:18:27.541Z,5.81
2023-04-17T22:20:57.305Z,5.81
2023-04-17T22:23:25.629Z,5.65
2023-04-17T22:25:53.905Z,5.83
2023-04-17T22:28:22.260Z,5.77
2023-04-17T22:30:52.108Z,5.84
2023-04-17T22:33:20.479Z,5.84
2023-04-17T22:35:49.554Z,5.85
2023-04-17T22:38:20.285Z,5.83
2023-04-17T22:40:48.774Z,5.82
2023-04-17T22:43:17.082Z,5.78
2023-04-17T22:45:45.371Z,5.76
2023-04-17T22:48:13.775Z,5.75
2023-04-17T22:50:42.926Z,5.74
2023-04-17T22:53:11.280Z,5.74
2023-04-17T22:55:41.271Z,5.74
2023-04-17T22:58:09.653Z,5.60
2023-04-17T23:00:38.414Z,5.80
2023-04-17T23:03:07.191Z,5.79
2023-04-17T23:05:35.553Z,5.77
2023-04-17T23:08:03.903Z,5.75
2023-04-17T23:10:32.179Z,5.76
2023-04-17T23:13:01.946Z,5.58
2023-04-17T23:15:30.448Z,5.80
2023-04-17T23:17:58.919Z,5.81
2023-04-17T23:20:27.332Z,5.69
2023-04-17T23:22:55.729Z,5.79
2023-04-17T23:25:24.065Z,5.73
2023-04-17T23:27:52.400Z,5.69
